Time;durP1;ratioP1;P1;durP2;ratioP2;P2;SDS_P1;SDS_P2;PMS_P1;PMS_P2;Temp;Humidity;BMP_temperature;BMP_pressure;BME280_temperature;BME280_humidity;BME280_pressure;Samples;Min_cycle;Max_cycle;Signal;HPM_P1;HPM_P2
2022/03/28 00:02:14;;;;;;;20.10;11.83;;;;;;;4.34;100.00;97352.75;5029799;28;20447;-72
2022/03/28 00:04:41;;;;;;;12.90;8.00;;;;;;;4.06;100.00;97325.25;5029906;28;20467;-72
2022/03/28 00:07:08;;;;;;;9.97;7.73;;;;;;;4.17;100.00;97333.91;5029748;28;20436;-72
2022/03/28 00:09:34;;;;;;;9.53;7.80;;;;;;;4.26;100.00;97342.00;5004260;28;20468;-72
2022/03/28 00:12:01;;;;;;;9.70;7.00;;;;;;;4.07;100.00;97315.56;5012694;28;20984;-72
2022/03/28 00:14:28;;;;;;;17.97;7.40;;;;;;;4.10;100.00;97313.19;5031351;28;20994;-72
2022/03/28 00:16:56;;;;;;;7.60;6.90;;;;;;;4.18;100.00;97334.69;5029333;28;20480;-72
2022/03/28 00:19:23;;;;;;;12.63;9.17;;;;;;;4.09;100.00;97319.47;5030973;28;20448;-72
2022/03/28 00:21:50;;;;;;;9.60;8.60;;;;;;;4.01;100.00;97332.31;5013303;28;20528;-72
2022/03/28 00:24:17;;;;;;;8.40;7.60;;;;;;;4.11;100.00;97306.91;5013633;28;20509;-72
2022/03/28 00:26:44;;;;;;;9.07;7.73;;;;;;;4.24;100.00;97331.00;5030805;28;20467;-73
2022/03/28 00:29:10;;;;;;;9.57;8.50;;;;;;;4.23;100.00;97311.91;5029689;28;20436;-73
2022/03/28 00:31:37;;;;;;;10.13;8.23;;;;;;;4.21;100.00;97323.69;5029598;28;20453;-73
2022/03/28 00:34:04;;;;;;;8.50;7.70;;;;;;;4.49;100.00;97338.88;5011884;28;20532;-74
2022/03/28 00:36:31;;;;;;;9.40;8.20;;;;;;;4.21;100.00;97313.22;5028075;28;20607;-73
2022/03/28 00:38:57;;;;;;;8.23;7.43;;;;;;;4.05;100.00;97343.81;5016200;28;20450;-73
2022/03/28 00:41:26;;;;;;;10.43;7.50;;;;;;;3.39;100.00;97297.34;5049847;28;20436;-73
2022/03/28 00:43:57;;;;;;;8.03;7.23;;;;;;;3.64;100.00;97327.22;5033628;28;20530;-73
2022/03/28 00:46:24;;;;;;;8.33;7.30;;;;;;;3.78;100.00;97326.50;5033432;28;21027;-73
2022/03/28 00:48:52;;;;;;;7.37;6.57;;;;;;;3.67;100.00;97324.88;5033506;28;20443;-73
2022/03/28 00:51:21;;;;;;;8.57;7.20;;;;;;;3.66;100.00;97310.22;5033358;28;20514;-73
2022/03/28 00:53:47;;;;;;;9.33;6.27;;;;;;;3.55;100.00;97293.72;5049886;28;20488;-73
2022/03/28 00:56:14;;;;;;;8.67;7.87;;;;;;;3.88;100.00;97317.88;5033306;28;20562;-73
2022/03/28 00:58:41;;;;;;;9.17;7.50;;;;;;;3.78;100.00;97316.03;5033553;28;20804;-73
2022/03/28 01:01:11;;;;;;;9.83;8.57;;;;;;;3.93;100.00;97314.50;5034592;28;20844;-73
2022/03/28 01:03:38;;;;;;;8.20;7.40;;;;;;;3.83;100.00;97310.00;5033163;28;20482;-73
2022/03/28 01:06:06;;;;;;;8.60;7.07;;;;;;;3.87;100.00;97305.81;5033178;28;20483;-73
2022/03/28 01:08:36;;;;;;;7.83;6.90;;;;;;;3.79;100.00;97282.81;5033159;28;20479;-73
2022/03/28 01:11:06;;;;;;;7.67;6.87;;;;;;;3.66;100.00;97306.84;5034404;28;20478;-73
2022/03/28 01:13:34;;;;;;;6.83;6.20;;;;;;;3.84;100.00;97307.13;5049482;28;20449;-73
2022/03/28 01:16:02;;;;;;;14.00;6.87;;;;;;;3.64;100.00;97306.31;5032982;28;20463;-73
2022/03/28 01:18:30;;;;;;;8.87;7.17;;;;;;;3.55;100.00;97288.50;5032943;28;20444;-73
2022/03/28 01:21:01;;;;;;;9.20;7.10;;;;;;;3.69;100.00;97304.47;5032930;28;20493;-73
2022/03/28 01:23:28;;;;;;;8.43;7.30;;;;;;;3.43;100.00;97301.00;5032936;28;20523;-73
2022/03/28 01:25:56;;;;;;;12.57;8.10;;;;;;;3.45;100.00;97295.50;5034111;28;20534;-73
2022/03/28 01:28:27;;;;;;;8.83;6.90;;;;;;;3.42;100.00;97294.19;5032713;28;20454;-73
2022/03/28 01:30:54;;;;;;;7.93;7.20;;;;;;;3.38;100.00;97274.06;5049481;28;20474;-73
2022/03/28 01:33:22;;;;;;;10.53;8.10;;;;;;;3.55;100.00;97288.50;5011890;28;20432;-73
2022/03/28 01:35:49;;;;;;;9.37;8.20;;;;;;;3.12;100.00;97289.63;5045767;28;20535;-72
2022/03/28 01:38:17;;;;;;;8.43;7.07;;;;;;;2.94;100.00;97283.03;5030545;28;20474;-72
2022/03/28 01:40:46;;;;;;;9.10;8.13;;;;;;;2.99;100.00;97290.09;5032521;28;20935;-72
2022/03/28 01:43:14;;;;;;;8.33;7.53;;;;;;;2.94;100.00;97264.75;5016074;28;20447;-72
2022/03/28 01:45:40;;;;;;;9.00;8.10;;;;;;;3.04;100.00;97287.50;5033823;28;20548;-72
2022/03/28 01:48:08;;;;;;;8.67;7.77;;;;;;;3.10;100.00;97285.72;5032371;28;20529;-72
2022/03/28 01:50:36;;;;;;;7.30;6.60;;;;;;;3.17;100.00;97281.03;5032757;28;20861;-73
2022/03/28 01:53:03;;;;;;;7.50;6.13;;;;;;;3.32;100.00;97288.94;5032164;28;20477;-71
2022/03/28 01:55:30;;;;;;;9.50;7.60;;;;;;;3.11;100.00;97256.72;5032172;28;20467;-71
2022/03/28 01:57:57;;;;;;;9.63;7.00;;;;;;;3.10;100.00;97262.97;5032110;28;20432;-71
2022/03/28 02:00:28;;;;;;;7.87;7.07;;;;;;;3.29;100.00;97284.22;5035268;28;20464;-71
2022/03/28 02:02:55;;;;;;;8.67;7.87;;;;;;;3.01;100.00;97245.44;5065464;28;20432;-71
2022/03/28 02:05:22;;;;;;;8.60;7.80;;;;;;;3.20;100.00;97277.91;5065109;28;20459;-72
2022/03/28 02:07:49;;;;;;;7.53;6.80;;;;;;;2.91;100.00;97272.28;5031996;28;20494;-72
2022/03/28 02:10:18;;;;;;;9.87;7.00;;;;;;;3.13;100.00;97272.13;5033217;28;20443;-72
2022/03/28 02:12:46;;;;;;;7.77;6.37;;;;;;;3.07;100.00;97267.91;5031909;28;20435;-72
2022/03/28 02:15:14;;;;;;;8.07;7.27;;;;;;;2.95;100.00;97268.13;5015408;28;20554;-72
2022/03/28 02:17:40;;;;;;;8.90;6.90;;;;;;;2.85;100.00;97247.19;5031760;28;20460;-72
2022/03/28 02:20:09;;;;;;;9.80;7.70;;;;;;;2.92;100.00;97266.00;5048193;28;20872;-72
2022/03/28 02:22:38;;;;;;;7.67;6.97;;;;;;;2.76;100.00;97246.09;5031704;28;20431;-72
2022/03/28 02:25:07;;;;;;;24.93;7.03;;;;;;;2.95;100.00;97257.69;5033005;28;20524;-72
2022/03/28 02:27:34;;;;;;;7.87;7.17;;;;;;;2.64;100.00;97238.44;5033058;28;20500;-72
2022/03/28 02:30:01;;;;;;;8.50;6.60;;;;;;;2.84;100.00;97250.84;5031758;28;20866;-72
2022/03/28 02:32:28;;;;;;;9.93;6.70;;;;;;;2.70;100.00;97250.50;5031557;28;20443;-72
2022/03/28 02:34:54;;;;;;;6.37;5.77;;;;;;;2.62;100.00;97250.97;5017894;28;20996;-72
2022/03/28 02:37:21;;;;;;;7.37;6.57;;;;;;;2.46;100.00;97217.97;5031585;28;20945;-72
2022/03/28 02:39:47;;;;;;;10.00;8.00;;;;;;;2.45;100.00;97213.81;5032792;28;20871;-72
2022/03/28 02:42:14;;;;;;;8.00;6.73;;;;;;;2.72;100.00;97234.56;5031442;28;20968;-72
2022/03/28 02:44:41;;;;;;;6.67;6.03;;;;;;;2.59;100.00;97236.59;5064468;28;20447;-72
2022/03/28 02:47:07;;;;;;;7.67;6.97;;;;;;;2.64;100.00;97209.72;5031429;28;20975;-72
2022/03/28 02:49:35;;;;;;;7.97;5.63;;;;;;;2.76;100.00;97238.25;5031317;28;20464;-72
2022/03/28 02:52:02;;;;;;;8.80;6.63;;;;;;;2.64;100.00;97241.06;5064590;28;20531;-72
2022/03/28 02:54:29;;;;;;;7.67;6.87;;;;;;;2.56;100.00;97218.06;5032605;28;20427;-72
2022/03/28 02:56:55;;;;;;;7.60;6.87;;;;;;;2.63;100.00;97210.75;5033381;28;20873;-72
2022/03/28 02:59:22;;;;;;;7.20;6.50;;;;;;;2.61;100.00;97221.47;5031903;28;20464;-72
2022/03/28 03:01:50;;;;;;;11.50;6.57;;;;;;;2.57;100.00;97236.06;5031381;28;20522;-72
2022/03/28 03:04:17;;;;;;;9.10;7.70;;;;;;;2.24;100.00;97190.16;5032779;28;21345;-72
2022/03/28 03:06:43;;;;;;;7.40;6.67;;;;;;;2.24;100.00;97210.25;5032300;28;20544;-72
2022/03/28 03:09:10;;;;;;;7.83;6.97;;;;;;;2.20;100.00;97207.38;5030702;28;20494;-72
2022/03/28 03:11:37;;;;;;;13.20;6.87;;;;;;;2.17;100.00;97199.25;5063944;28;20542;-72
2022/03/28 03:14:05;;;;;;;10.73;6.43;;;;;;;2.23;100.00;97204.25;5030671;28;20530;-72
2022/03/28 03:16:32;;;;;;;7.40;6.17;;;;;;;2.33;100.00;97227.81;5031894;28;20464;-72
2022/03/28 03:18:58;;;;;;;7.57;6.60;;;;;;;2.43;100.00;97226.31;5030685;28;20431;-72
2022/03/28 03:21:25;;;;;;;9.93;6.80;;;;;;;2.43;100.00;97226.31;5030677;28;20506;-72
2022/03/28 03:23:52;;;;;;;7.90;6.47;;;;;;;2.43;100.00;97224.50;5030503;28;20525;-72
2022/03/28 03:26:19;;;;;;;7.20;6.60;;;;;;;2.42;100.00;97219.53;5014211;28;20831;-72
2022/03/28 03:28:45;;;;;;;8.03;7.03;;;;;;;2.12;100.00;97218.25;5030526;28;21059;-72
2022/03/28 03:31:13;;;;;;;7.07;6.40;;;;;;;2.11;100.00;97221.91;5030543;28;20432;-72
2022/03/28 03:33:39;;;;;;;7.30;6.60;;;;;;;2.04;100.00;97222.13;5023580;28;20435;-72
2022/03/28 03:36:07;;;;;;;7.10;5.80;;;;;;;2.07;100.00;97210.41;5010665;28;21047;-72
2022/03/28 03:38:33;;;;;;;9.00;7.20;;;;;;;2.11;100.00;97221.13;5030430;28;20456;-72
2022/03/28 03:41:00;;;;;;;7.53;6.80;;;;;;;2.07;100.00;97194.75;5063447;28;20805;-72
2022/03/28 03:43:27;;;;;;;8.60;7.40;;;;;;;2.27;100.00;97220.19;5030419;28;20460;-72
2022/03/28 03:45:54;;;;;;;7.93;7.17;;;;;;;2.09;100.00;97218.75;5029967;28;20462;-72
2022/03/28 03:48:22;;;;;;;9.40;7.43;;;;;;;2.07;100.00;97220.84;5014223;28;20468;-72
2022/03/28 03:50:48;;;;;;;10.07;8.67;;;;;;;2.04;100.00;97210.91;5013737;28;20999;-72
2022/03/28 03:53:15;;;;;;;8.20;7.07;;;;;;;1.96;100.00;97193.88;5030206;28;20950;-72
2022/03/28 03:55:42;;;;;;;7.33;6.63;;;;;;;1.97;100.00;97205.09;5013785;28;20463;-72
2022/03/28 03:58:09;;;;;;;8.30;7.50;;;;;;;1.68;100.00;97161.09;5030764;28;20542;-73
2022/03/28 04:00:35;;;;;;;13.17;7.30;;;;;;;1.63;100.00;97192.31;5033475;28;20453;-73
2022/03/28 04:03:03;;;;;;;12.60;7.70;;;;;;;1.37;100.00;97165.25;5021802;28;20445;-71
2022/03/28 04:05:37;;;;;;;8.27;6.90;;;;;;;1.34;100.00;97168.34;4998800;28;20469;-73
2022/03/28 04:08:05;;;;;;;7.50;6.40;;;;;;;1.42;100.00;97185.34;5030084;28;20553;-71
2022/03/28 04:10:34;;;;;;;9.47;7.00;;;;;;;1.22;100.00;97175.50;5031594;28;20943;-72
2022/03/28 04:13:02;;;;;;;8.53;6.90;;;;;;;1.48;100.00;97187.75;5062667;28;20778;-71
2022/03/28 04:15:31;;;;;;;8.90;7.50;;;;;;;1.57;100.00;97185.47;5063408;28;20467;-71
2022/03/28 04:18:01;;;;;;;8.57;7.67;;;;;;;1.63;100.00;97181.91;5013958;28;20848;-71
2022/03/28 04:20:32;;;;;;;8.27;7.20;;;;;;;1.66;100.00;97186.59;5031090;28;21007;-71
2022/03/28 04:22:58;;;;;;;8.77;7.80;;;;;;;1.52;100.00;97154.16;5029740;28;20521;-70
2022/03/28 04:25:25;;;;;;;12.07;9.43;;;;;;;1.57;100.00;97154.19;4990659;28;20477;-70
2022/03/28 04:27:52;;;;;;;8.57;7.70;;;;;;;1.76;100.00;97183.31;5006598;28;20520;-70
2022/03/28 04:30:19;;;;;;;11.60;10.50;;;;;;;1.60;100.00;97145.09;5025855;28;20447;-70
2022/03/28 04:32:45;;;;;;;11.57;9.13;;;;;;;1.75;100.00;97150.47;5022612;28;20481;-71
2022/03/28 04:35:13;;;;;;;8.33;7.30;;;;;;;1.74;100.00;97174.97;5000047;28;20490;-72
2022/03/28 04:37:41;;;;;;;10.30;7.53;;;;;;;1.70;100.00;97174.66;5029526;28;20914;-71
2022/03/28 04:40:11;;;;;;;9.87;7.73;;;;;;;1.60;100.00;97176.38;5029527;28;20490;-71
2022/03/28 04:42:37;;;;;;;8.30;7.50;;;;;;;1.45;100.00;97140.53;5030106;28;20498;-71
2022/03/28 04:45:05;;;;;;;12.80;9.80;;;;;;;1.70;100.00;97171.25;5009742;28;20475;-71
2022/03/28 04:47:33;;;;;;;10.90;7.10;;;;;;;1.30;100.00;97169.06;5026832;28;20478;-72
2022/03/28 04:49:59;;;;;;;11.70;7.87;;;;;;;1.28;100.00;97164.09;5062703;28;20463;-72
2022/03/28 04:52:26;;;;;;;8.13;7.30;;;;;;;1.34;100.00;97154.53;5030704;28;20510;-72
2022/03/28 04:54:53;;;;;;;7.60;6.80;;;;;;;1.47;100.00;97165.34;5029376;28;20440;-72
2022/03/28 04:57:20;;;;;;;8.57;7.83;;;;;;;1.40;100.00;97172.56;5012990;28;20545;-71
2022/03/28 04:59:47;;;;;;;10.53;9.07;;;;;;;1.27;100.00;97169.56;5030169;28;20467;-72
2022/03/28 05:02:14;;;;;;;9.43;8.63;;;;;;;1.44;100.00;97154.59;5013050;28;20972;-72
2022/03/28 05:04:41;;;;;;;15.27;8.07;;;;;;;1.07;100.00;97133.66;5022832;28;20432;-73
2022/03/28 05:07:08;;;;;;;9.37;8.40;;;;;;;1.44;100.00;97175.44;5011555;28;20458;-73
2022/03/28 05:09:35;;;;;;;10.83;8.93;;;;;;;1.50;100.00;97161.44;5029403;28;20471;-73
2022/03/28 05:12:02;;;;;;;9.83;8.97;;;;;;;1.34;100.00;97165.75;5029531;28;20458;-73
2022/03/28 05:14:29;;;;;;;10.73;9.63;;;;;;;1.26;100.00;97158.34;5029801;28;20465;-72
2022/03/28 05:16:55;;;;;;;10.47;9.47;;;;;;;1.37;100.00;97180.88;5029617;28;20558;-72
2022/03/28 05:19:22;;;;;;;13.33;10.90;;;;;;;1.44;100.00;97189.25;5062567;28;20427;-73
2022/03/28 05:21:49;;;;;;;14.60;12.40;;;;;;;1.38;100.00;97186.88;5027707;28;20809;-73
2022/03/28 05:24:16;;;;;;;15.50;12.03;;;;;;;1.33;100.00;97186.78;5019910;28;20459;-73
2022/03/28 05:26:42;;;;;;;13.07;10.07;;;;;;;0.85;100.00;97157.91;5034882;28;20479;-72
2022/03/28 05:29:09;;;;;;;12.93;9.40;;;;;;;1.09;100.00;97161.06;5016985;28;20439;-73
2022/03/28 05:31:35;;;;;;;15.07;10.30;;;;;;;1.47;100.00;97183.59;5034270;28;20442;-73
2022/03/28 05:34:02;;;;;;;12.87;11.30;;;;;;;1.61;100.00;97168.34;5022975;28;20443;-74
2022/03/28 05:36:29;;;;;;;13.63;9.97;;;;;;;1.74;100.00;97183.56;5062840;28;20462;-73
2022/03/28 05:38:56;;;;;;;23.10;14.40;;;;;;;1.38;100.00;97159.00;5016858;28;20427;-73
2022/03/28 05:41:22;;;;;;;21.73;16.30;;;;;;;1.73;100.00;97184.56;5033296;28;20457;-73
2022/03/28 05:43:49;;;;;;;24.00;16.60;;;;;;;1.88;100.00;97178.72;5024135;28;20863;-71
2022/03/28 05:46:18;;;;;;;18.17;11.80;;;;;;;1.76;100.00;97176.28;5045806;28;20452;-71
2022/03/28 05:48:51;;;;;;;18.57;13.87;;;;;;;1.74;100.00;97172.34;5026236;28;20819;-70
2022/03/28 05:51:18;;;;;;;20.70;12.30;;;;;;;1.46;100.00;97145.50;5032784;28;20441;-70
2022/03/28 05:53:45;;;;;;;16.13;11.30;;;;;;;1.77;100.00;97175.25;5033218;28;20438;-71
2022/03/28 05:56:11;;;;;;;20.50;12.57;;;;;;;1.66;100.00;97139.69;5033100;28;20473;-71
2022/03/28 05:58:38;;;;;;;15.53;13.83;;;;;;;1.96;100.00;97182.66;5032783;28;20566;-71
2022/03/28 06:01:05;;;;;;;21.67;15.67;;;;;;;1.99;100.00;97154.25;5033040;28;20470;-71
2022/03/28 06:03:32;;;;;;;37.47;15.70;;;;;;;1.75;100.00;97119.19;5049788;28;20791;-71
2022/03/28 06:06:03;;;;;;;18.00;14.33;;;;;;;2.02;100.00;97171.25;5028256;28;20864;-71
2022/03/28 06:08:31;;;;;;;28.93;18.70;;;;;;;2.15;100.00;97168.22;5026063;28;20439;-71
2022/03/28 06:10:58;;;;;;;24.27;16.63;;;;;;;2.01;100.00;97151.44;5020725;28;20459;-71
2022/03/28 06:13:25;;;;;;;26.93;19.90;;;;;;;1.86;100.00;97131.22;5019639;28;20543;-71
2022/03/28 06:15:51;;;;;;;32.47;21.00;;;;;;;2.36;100.00;97169.13;5034042;28;20451;-72
2022/03/28 06:18:18;;;;;;;20.83;15.80;;;;;;;2.32;100.00;97147.19;5033967;28;20849;-71
2022/03/28 06:20:45;;;;;;;22.43;15.60;;;;;;;2.40;100.00;97158.94;5006481;28;20436;-71
2022/03/28 06:23:12;;;;;;;16.60;10.80;;;;;;;2.33;100.00;97152.16;5019891;28;20480;-70
2022/03/28 06:25:40;;;;;;;16.80;9.83;;;;;;;2.53;100.00;97145.44;5006358;28;20498;-71
2022/03/28 06:28:07;;;;;;;24.57;12.93;;;;;;;2.69;100.00;97146.31;5032999;28;20435;-72
2022/03/28 06:30:34;;;;;;;44.00;26.23;;;;;;;2.81;100.00;97171.19;5032753;28;20979;-73
2022/03/28 06:33:01;;;;;;;43.90;23.40;;;;;;;2.92;100.00;97161.53;5032729;28;20471;-73
2022/03/28 06:35:28;;;;;;;44.63;21.60;;;;;;;2.80;100.00;97134.84;5030590;28;20472;-72
2022/03/28 06:37:55;;;;;;;24.47;16.30;;;;;;;3.07;100.00;97164.22;5033292;28;20507;-72
2022/03/28 06:40:22;;;;;;;19.60;13.00;;;;;;;2.85;100.00;97156.56;5029125;28;20432;-72
2022/03/28 06:42:49;;;;;;;23.97;13.27;;;;;;;2.98;100.00;97163.16;5017880;28;20441;-72
2022/03/28 06:45:17;;;;;;;21.77;13.23;;;;;;;3.32;100.00;97160.09;5026805;28;20463;-73
2022/03/28 06:47:51;;;;;;;20.43;14.30;;;;;;;3.35;100.00;97129.00;5015927;28;20440;-72
2022/03/28 06:50:24;;;;;;;22.27;14.50;;;;;;;3.85;100.00;97157.00;5016353;28;20433;-72
2022/03/28 06:52:53;;;;;;;18.30;14.07;;;;;;;4.01;100.00;97143.94;5015941;28;20444;-72
2022/03/28 06:55:20;;;;;;;18.53;12.93;;;;;;;4.39;100.00;97156.41;5026513;28;20482;-72
2022/03/28 06:57:47;;;;;;;13.00;11.70;;;;;;;4.80;100.00;97151.03;5018843;28;20517;-71
2022/03/28 07:00:14;;;;;;;13.33;11.30;;;;;;;4.78;100.00;97089.50;5033658;28;20883;-71
2022/03/28 07:02:41;;;;;;;16.57;14.87;;;;;;;5.40;100.00;97153.63;5020168;28;20514;-72
2022/03/28 07:05:09;;;;;;;27.23;21.10;;;;;;;5.57;100.00;97133.84;5021103;28;20540;-72
2022/03/28 07:07:48;;;;;;;22.83;17.77;;;;;;;5.84;100.00;97158.81;5029263;28;20435;-71
2022/03/28 07:10:20;;;;;;;15.07;13.60;;;;;;;6.21;100.00;97166.16;5018983;28;20545;-72
2022/03/28 07:12:47;;;;;;;14.50;13.00;;;;;;;6.30;100.00;97143.50;5026422;28;20437;-71
2022/03/28 07:15:14;;;;;;;15.00;13.50;;;;;;;6.40;100.00;97153.09;5014489;28;20557;-72
2022/03/28 07:17:52;;;;;;;14.27;12.87;;;;;;;6.48;100.00;97127.00;5023741;28;20461;-72
2022/03/28 07:20:21;;;;;;;14.47;12.97;;;;;;;6.79;100.00;97140.56;5030421;28;20446;-72
2022/03/28 07:22:48;;;;;;;16.80;11.23;;;;;;;6.81;100.00;97121.88;5065489;28;20447;-72
2022/03/28 07:25:14;;;;;;;15.47;13.30;;;;;;;6.57;100.00;97134.28;5032428;28;20474;-72
2022/03/28 07:27:41;;;;;;;15.00;13.40;;;;;;;7.08;100.00;97132.59;5022194;28;20435;-73
2022/03/28 07:30:10;;;;;;;16.10;13.90;;;;;;;7.14;100.00;97146.44;5028025;28;20536;-72
2022/03/28 07:32:38;;;;;;;18.50;14.70;;;;;;;7.16;100.00;97133.78;5011758;28;21075;-72
2022/03/28 07:35:06;;;;;;;17.37;13.93;;;;;;;7.74;100.00;97151.91;5017011;28;20557;-72
2022/03/28 07:37:34;;;;;;;15.17;13.67;;;;;;;7.77;100.00;97151.34;5032358;28;20499;-72
2022/03/28 07:40:02;;;;;;;15.33;13.73;;;;;;;8.16;100.00;97152.81;5030879;28;20441;-73
2022/03/28 07:42:29;;;;;;;12.80;11.17;;;;;;;8.01;100.00;97140.66;5018680;28;20440;-73
2022/03/28 07:44:58;;;;;;;13.33;11.63;;;;;;;8.36;100.00;97143.78;5027323;28;20532;-72
2022/03/28 07:47:25;;;;;;;15.60;13.50;;;;;;;8.49;100.00;97149.09;5023540;28;20450;-72
2022/03/28 07:49:53;;;;;;;15.27;13.80;;;;;;;8.15;100.00;97132.81;5013795;28;20437;-73
2022/03/28 07:52:22;;;;;;;13.93;12.60;;;;;;;8.28;100.00;97140.75;5025277;28;20432;-74
2022/03/28 07:54:49;;;;;;;14.87;12.80;;;;;;;8.68;100.00;97142.94;5017728;28;20610;-74
2022/03/28 07:57:17;;;;;;;17.37;14.13;;;;;;;8.73;100.00;97130.44;5031398;28;20441;-73
2022/03/28 07:59:46;;;;;;;14.53;13.10;;;;;;;8.81;100.00;97136.88;5025104;28;20537;-74
2022/03/28 08:02:38;;;;;;;16.60;13.67;;;;;;;8.62;100.00;97094.81;5027172;28;20707;-73
2022/03/28 08:05:07;;;;;;;17.43;14.17;;;;;;;9.13;100.00;97123.56;5030461;28;20464;-74
2022/03/28 08:07:34;;;;;;;18.73;14.23;;;;;;;9.43;100.00;97123.94;5025287;28;20448;-73
2022/03/28 08:10:04;;;;;;;15.40;13.47;;;;;;;9.96;100.00;97120.59;5023530;28;20474;-74
2022/03/28 08:12:33;;;;;;;14.67;13.17;;;;;;;10.17;100.00;97119.00;5025884;28;20441;-74
2022/03/28 08:14:59;;;;;;;14.73;12.90;;;;;;;9.97;100.00;97120.28;5023823;28;20468;-74
2022/03/28 08:17:26;;;;;;;16.80;15.17;;;;;;;9.99;100.00;97091.69;5031627;28;20429;-74
2022/03/28 08:19:53;;;;;;;20.30;15.00;;;;;;;10.48;100.00;97113.72;5030516;28;20436;-74
2022/03/28 08:22:19;;;;;;;23.80;13.93;;;;;;;9.86;100.00;97079.34;5004525;28;20523;-74
2022/03/28 08:24:46;;;;;;;16.03;13.53;;;;;;;9.85;100.00;97109.50;5030168;28;20443;-74
2022/03/28 08:27:13;;;;;;;16.10;14.40;;;;;;;9.63;100.00;97099.75;5030605;28;20464;-74
2022/03/28 08:29:39;;;;;;;16.37;14.00;;;;;;;9.84;100.00;97084.16;5018542;28;20478;-73
2022/03/28 08:32:06;;;;;;;16.37;14.53;;;;;;;10.20;100.00;97085.91;5017659;28;20448;-73
2022/03/28 08:34:36;;;;;;;17.43;15.20;;;;;;;10.29;100.00;97090.19;5018506;28;20437;-74
2022/03/28 08:37:04;;;;;;;18.73;16.43;;;;;;;10.92;100.00;97091.59;5024205;28;20437;-74
2022/03/28 08:39:31;;;;;;;26.43;19.67;;;;;;;11.22;100.00;97091.78;5027743;28;20534;-74
2022/03/28 08:41:58;;;;;;;18.77;16.40;;;;;;;11.38;100.00;97074.34;5014379;28;20454;-74
2022/03/28 08:44:26;;;;;;;15.40;13.90;;;;;;;11.59;100.00;97085.06;5030268;28;20941;-74
2022/03/28 08:46:55;;;;;;;15.80;14.07;;;;;;;11.62;100.00;97089.75;5013979;28;20480;-74
2022/03/28 08:49:22;;;;;;;15.87;14.37;;;;;;;11.25;100.00;97062.81;5031580;28;20448;-74
2022/03/28 08:51:51;;;;;;;15.27;13.50;;;;;;;11.42;100.00;97080.56;5031586;28;20430;-74
2022/03/28 08:54:19;;;;;;;18.77;15.60;;;;;;;11.72;100.00;97075.38;5031482;28;20433;-74
2022/03/28 08:56:46;;;;;;;13.03;11.90;;;;;;;11.87;100.00;97071.50;5029896;28;20495;-74
2022/03/28 08:59:13;;;;;;;17.40;14.97;;;;;;;11.81;100.00;97073.53;5032584;28;20545;-74
2022/03/28 09:01:41;;;;;;;17.80;15.10;;;;;;;11.96;100.00;97085.50;5033755;28;20487;-74
2022/03/28 09:04:09;;;;;;;14.23;12.93;;;;;;;12.14;100.00;97092.31;5035413;28;20440;-74
2022/03/28 09:06:38;;;;;;;18.10;15.30;;;;;;;12.21;100.00;97079.34;5035003;28;20460;-74
2022/03/28 09:09:26;;;;;;;14.90;13.40;;;;;;;12.62;100.00;97076.03;5035093;28;20460;-74
2022/03/28 09:11:55;;;;;;;15.60;13.37;;;;;;;12.76;100.00;97081.13;5033530;28;20995;-74
2022/03/28 09:14:27;;;;;;;15.33;12.90;;;;;;;13.01;100.00;97079.41;5059866;28;20800;-74
2022/03/28 09:17:05;;;;;;;13.97;12.57;;;;;;;13.08;100.00;97074.34;5029688;28;20473;-74
2022/03/28 09:19:54;;;;;;;15.90;13.00;;;;;;;13.35;100.00;97072.28;5023913;28;20467;-74
2022/03/28 09:22:29;;;;;;;18.50;13.83;;;;;;;13.40;100.00;97067.56;5013850;28;20465;-74
2022/03/28 09:25:07;;;;;;;15.13;13.13;;;;;;;13.47;100.00;97067.81;5014878;28;20441;-75
2022/03/28 09:27:39;;;;;;;14.03;12.60;;;;;;;13.24;100.00;97029.44;5033578;28;20528;-74
2022/03/28 09:30:18;;;;;;;16.73;14.20;;;;;;;13.53;100.00;97055.13;5033443;28;20443;-74
2022/03/28 09:32:54;;;;;;;15.40;13.60;;;;;;;13.82;100.00;97064.84;5021955;28;21292;-74
2022/03/28 09:35:23;;;;;;;13.67;12.27;;;;;;;13.63;100.00;97017.50;5001620;28;20461;-74
2022/03/28 09:38:03;;;;;;;16.67;12.07;;;;;;;14.03;100.00;97046.16;5031088;28;20449;-74
2022/03/28 09:40:44;;;;;;;17.50;12.73;;;;;;;14.08;100.00;97043.28;5033540;28;20499;-75
2022/03/28 09:43:31;;;;;;;14.10;12.80;;;;;;;14.33;100.00;97041.41;5029309;28;20475;-74
2022/03/28 09:45:58;;;;;;;13.10;11.80;;;;;;;14.32;100.00;97029.22;4998745;28;20459;-74
2022/03/28 09:48:27;;;;;;;14.07;12.57;;;;;;;14.28;100.00;97012.38;5026096;28;20429;-74
2022/03/28 09:51:04;;;;;;;16.90;12.27;;;;;;;14.40;99.91;97023.00;5028827;28;20448;-74
2022/03/28 09:53:36;;;;;;;14.33;12.33;;;;;;;14.59;100.00;97014.50;5033135;28;20488;-74
2022/03/28 09:56:05;;;;;;;13.17;11.83;;;;;;;14.67;99.05;96995.72;5019668;28;20458;-74
2022/03/28 09:58:47;;;;;;;12.90;11.60;;;;;;;14.84;97.58;97012.56;5033113;28;20566;-75
2022/03/28 10:01:29;;;;;;;14.27;11.57;;;;;;;15.08;100.00;97002.59;5008320;28;20418;-74
2022/03/28 10:04:05;;;;;;;15.37;11.83;;;;;;;15.08;95.38;96999.16;5034189;28;20425;-75
2022/03/28 10:06:33;;;;;;;13.33;11.93;;;;;;;15.08;93.07;96999.16;5022779;28;20459;-74
2022/03/28 10:09:00;;;;;;;13.33;11.63;;;;;;;14.76;93.58;96963.66;5019043;28;20464;-74
2022/03/28 10:11:27;;;;;;;12.53;11.33;;;;;;;14.81;93.83;96966.06;5031660;28;21235;-74
2022/03/28 10:13:55;;;;;;;12.57;11.37;;;;;;;14.81;93.19;96982.06;5032488;28;20434;-75
2022/03/28 10:16:27;;;;;;;12.23;10.73;;;;;;;14.98;89.69;96975.69;5032106;28;20468;-75
2022/03/28 10:18:53;;;;;;;19.33;11.60;;;;;;;15.26;87.90;96965.81;5031998;28;20588;-75
2022/03/28 10:21:32;;;;;;;13.20;10.23;;;;;;;15.38;84.99;96949.75;5004333;28;20480;-74
2022/03/28 10:24:10;;;;;;;13.63;12.00;;;;;;;15.34;85.28;96948.09;5028825;28;20425;-74
2022/03/28 10:26:40;;;;;;;12.93;11.50;;;;;;;15.85;79.93;96970.38;5030752;28;20478;-74
2022/03/28 10:29:15;;;;;;;13.70;10.97;;;;;;;15.96;79.29;96966.06;5022901;28;20531;-76
2022/03/28 10:32:07;;;;;;;11.97;10.77;;;;;;;16.02;79.63;96957.81;5028706;28;20592;-74
2022/03/28 10:34:54;;;;;;;14.83;13.20;;;;;;;15.87;77.61;96949.47;5029305;28;20480;-74
2022/03/28 10:37:49;;;;;;;11.73;9.73;;;;;;;15.59;76.20;96956.75;5015691;28;20448;-75
2022/03/28 10:40:35;;;;;;;10.00;7.40;;;;;;;15.49;76.15;96947.38;5031635;28;20457;-74
2022/03/28 10:43:06;;;;;;;8.70;7.80;;;;;;;15.60;76.88;96953.00;5033047;28;20445;-74
2022/03/28 10:45:56;;;;;;;11.00;8.43;;;;;;;15.54;75.17;96943.69;5019951;28;20447;-74
2022/03/28 10:48:54;;;;;;;8.60;7.80;;;;;;;15.63;73.63;96939.00;4999521;28;20463;-74
2022/03/28 10:51:26;;;;;;;11.13;8.70;;;;;;;15.32;74.99;96911.16;5030359;28;20444;-75
2022/03/28 10:53:56;;;;;;;13.00;9.10;;;;;;;15.63;74.79;96923.78;5031919;28;21243;-75
2022/03/28 10:56:34;;;;;;;20.10;9.30;;;;;;;15.74;73.08;96926.66;5004702;28;20540;-75
2022/03/28 10:59:12;;;;;;;9.83;7.90;;;;;;;15.79;72.51;96912.31;5032779;28;20498;-74
2022/03/28 11:01:50;;;;;;;13.90;9.53;;;;;;;15.71;70.64;96892.72;5047804;28;20495;-75
2022/03/28 11:04:19;;;;;;;8.93;7.97;;;;;;;15.89;69.89;96914.44;5064087;28;20452;-74
2022/03/28 11:07:07;;;;;;;10.50;9.37;;;;;;;15.80;68.15;96905.88;5047526;28;20465;-74
2022/03/28 11:10:07;;;;;;;13.50;7.70;;;;;;;15.91;66.52;96909.56;5022784;28;20462;-74
2022/03/28 11:12:35;;;;;;;7.20;6.50;;;;;;;16.03;65.20;96895.34;4991946;28;20904;-75
2022/03/28 11:15:22;;;;;;;7.97;7.27;;;;;;;16.31;63.98;96887.97;5007927;28;20462;-75
2022/03/28 11:18:01;;;;;;;6.37;5.67;;;;;;;16.83;60.75;96897.44;5011972;28;20440;-75
2022/03/28 11:20:44;;;;;;;12.87;11.37;;;;;;;16.81;58.48;96868.38;5030958;28;20430;-74
2022/03/28 11:23:20;;;;;;;13.63;12.10;;;;;;;17.20;57.81;96889.69;5030804;28;20540;-74
2022/03/28 11:25:52;;;;;;;13.80;10.17;;;;;;;17.39;58.11;96878.97;5022750;28;20450;-75
2022/03/28 11:28:22;;;;;;;10.67;9.20;;;;;;;17.65;56.17;96878.25;5026560;28;20485;-75
2022/03/28 11:30:58;;;;;;;11.47;9.33;;;;;;;17.85;54.72;96876.28;5014409;28;20438;-75
2022/03/28 11:33:30;;;;;;;18.03;9.77;;;;;;;17.65;53.34;96883.59;5025694;28;20878;-75
2022/03/28 11:36:02;;;;;;;8.10;6.73;;;;;;;17.64;52.99;96874.03;5024239;28;21001;-75